sensor_id;sensor_type;location;lat;lon;timestamp;P1;durP1;ratioP1;P2;durP2;ratioP2
12591;SDS011;6361;52.120;5.108;2023-07-31T00:00:33;6.82;;;4.90;;
12591;SDS011;6361;52.120;5.108;2023-07-31T00:02:59;6.82;;;4.60;;
12591;SDS011;6361;52.120;5.108;2023-07-31T00:05:24;9.10;;;5.43;;
12591;SDS011;6361;52.120;5.108;2023-07-31T00:07:49;12.60;;;5.63;;
12591;SDS011;6361;52.120;5.108;2023-07-31T00:10:15;17.35;;;6.25;;
12591;SDS011;6361;52.120;5.108;2023-07-31T00:12:42;12.82;;;5.97;;
12591;SDS011;6361;52.120;5.108;2023-07-31T00:15:08;18.73;;;6.03;;
12591;SDS011;6361;52.120;5.108;2023-07-31T00:17:34;21.02;;;6.88;;
12591;SDS011;6361;52.120;5.108;2023-07-31T00:19:59;21.45;;;6.82;;
12591;SDS011;6361;52.120;5.108;2023-07-31T00:22:25;20.08;;;6.35;;
12591;SDS011;6361;52.120;5.108;2023-07-31T00:24:50;33.17;;;7.53;;
12591;SDS011;6361;52.120;5.108;2023-07-31T00:27:16;32.67;;;7.78;;
12591;SDS011;6361;52.120;5.108;2023-07-31T00:29:41;32.00;;;8.85;;
12591;SDS011;6361;52.120;5.108;2023-07-31T00:32:07;32.50;;;8.38;;
12591;SDS011;6361;52.120;5.108;2023-07-31T00:34:32;32.45;;;9.05;;
12591;SDS011;6361;52.120;5.108;2023-07-31T00:36:58;39.20;;;8.93;;
12591;SDS011;6361;52.120;5.108;2023-07-31T00:39:23;34.55;;;10.02;;
12591;SDS011;6361;52.120;5.108;2023-07-31T00:41:49;32.38;;;8.90;;
12591;SDS011;6361;52.120;5.108;2023-07-31T00:44:14;33.58;;;9.18;;
12591;SDS011;6361;52.120;5.108;2023-07-31T00:46:39;30.60;;;8.18;;
12591;SDS011;6361;52.120;5.108;2023-07-31T00:49:05;32.92;;;8.85;;
12591;SDS011;6361;52.120;5.108;2023-07-31T00:51:30;30.05;;;7.78;;
12591;SDS011;6361;52.120;5.108;2023-07-31T00:53:56;29.75;;;8.27;;
12591;SDS011;6361;52.120;5.108;2023-07-31T00:56:21;21.27;;;6.57;;
12591;SDS011;6361;52.120;5.108;2023-07-31T00:58:47;14.45;;;5.35;;
12591;SDS011;6361;52.120;5.108;2023-07-31T01:01:13;12.27;;;4.50;;
12591;SDS011;6361;52.120;5.108;2023-07-31T01:03:38;8.95;;;3.42;;
12591;SDS011;6361;52.120;5.108;2023-07-31T01:08:56;12.40;;;4.18;;
12591;SDS011;6361;52.120;5.108;2023-07-31T01:11:27;11.88;;;4.10;;
12591;SDS011;6361;52.120;5.108;2023-07-31T01:13:56;14.60;;;4.78;;
12591;SDS011;6361;52.120;5.108;2023-07-31T01:16:22;18.80;;;5.95;;
12591;SDS011;6361;52.120;5.108;2023-07-31T01:18:47;30.90;;;7.50;;
12591;SDS011;6361;52.120;5.108;2023-07-31T01:26:35;33.15;;;8.45;;
12591;SDS011;6361;52.120;5.108;2023-07-31T01:29:18;29.20;;;8.20;;
12591;SDS011;6361;52.120;5.108;2023-07-31T01:31:48;33.47;;;7.70;;
12591;SDS011;6361;52.120;5.108;2023-07-31T01:34:15;27.80;;;7.88;;
12591;SDS011;6361;52.120;5.108;2023-07-31T01:36:42;32.20;;;8.40;;
12591;SDS011;6361;52.120;5.108;2023-07-31T01:39:08;32.42;;;8.40;;
12591;SDS011;6361;52.120;5.108;2023-07-31T01:41:33;37.47;;;7.97;;
12591;SDS011;6361;52.120;5.108;2023-07-31T01:43:59;29.55;;;7.55;;
12591;SDS011;6361;52.120;5.108;2023-07-31T01:46:26;31.45;;;8.32;;
12591;SDS011;6361;52.120;5.108;2023-07-31T01:48:52;32.42;;;8.27;;
12591;SDS011;6361;52.120;5.108;2023-07-31T01:51:17;35.85;;;8.68;;
12591;SDS011;6361;52.120;5.108;2023-07-31T01:53:43;25.08;;;7.30;;
12591;SDS011;6361;52.120;5.108;2023-07-31T01:56:08;29.40;;;7.28;;
12591;SDS011;6361;52.120;5.108;2023-07-31T01:58:33;24.13;;;7.53;;
12591;SDS011;6361;52.120;5.108;2023-07-31T02:00:59;22.85;;;6.78;;
12591;SDS011;6361;52.120;5.108;2023-07-31T02:03:24;23.88;;;6.75;;
12591;SDS011;6361;52.120;5.108;2023-07-31T02:05:50;25.58;;;7.07;;
12591;SDS011;6361;52.120;5.108;2023-07-31T02:08:15;27.45;;;7.35;;
12591;SDS011;6361;52.120;5.108;2023-07-31T02:10:41;26.98;;;7.80;;
12591;SDS011;6361;52.120;5.108;2023-07-31T02:13:07;30.27;;;7.57;;
12591;SDS011;6361;52.120;5.108;2023-07-31T02:15:33;30.50;;;7.53;;
12591;SDS011;6361;52.120;5.108;2023-07-31T02:17:59;30.00;;;7.50;;
12591;SDS011;6361;52.120;5.108;2023-07-31T02:20:24;34.03;;;8.15;;
12591;SDS011;6361;52.120;5.108;2023-07-31T02:22:50;25.13;;;7.35;;
12591;SDS011;6361;52.120;5.108;2023-07-31T02:25:15;32.05;;;7.90;;
12591;SDS011;6361;52.120;5.108;2023-07-31T02:27:41;29.50;;;7.65;;
12591;SDS011;6361;52.120;5.108;2023-07-31T02:30:06;29.88;;;7.32;;
12591;SDS011;6361;52.120;5.108;2023-07-31T02:32:32;30.65;;;7.97;;
12591;SDS011;6361;52.120;5.108;2023-07-31T02:34:58;24.30;;;7.25;;
12591;SDS011;6361;52.120;5.108;2023-07-31T02:37:23;33.55;;;8.88;;
12591;SDS011;6361;52.120;5.108;2023-07-31T02:39:48;38.80;;;8.45;;
12591;SDS011;6361;52.120;5.108;2023-07-31T02:42:14;31.45;;;8.07;;
12591;SDS011;6361;52.120;5.108;2023-07-31T02:44:39;32.75;;;7.38;;
12591;SDS011;6361;52.120;5.108;2023-07-31T02:47:05;28.35;;;7.72;;
12591;SDS011;6361;52.120;5.108;2023-07-31T02:49:30;27.60;;;8.13;;
12591;SDS011;6361;52.120;5.108;2023-07-31T02:51:56;29.70;;;8.43;;
12591;SDS011;6361;52.120;5.108;2023-07-31T02:54:21;33.72;;;7.60;;
12591;SDS011;6361;52.120;5.108;2023-07-31T02:56:47;30.27;;;7.90;;
12591;SDS011;6361;52.120;5.108;2023-07-31T02:59:12;32.03;;;8.27;;
12591;SDS011;6361;52.120;5.108;2023-07-31T03:01:38;39.80;;;8.48;;
12591;SDS011;6361;52.120;5.108;2023-07-31T03:04:03;38.70;;;9.32;;
12591;SDS011;6361;52.120;5.108;2023-07-31T03:06:29;30.02;;;8.70;;
12591;SDS011;6361;52.120;5.108;2023-07-31T03:08:54;39.75;;;8.77;;
12591;SDS011;6361;52.120;5.108;2023-07-31T03:11:20;41.45;;;9.50;;
12591;SDS011;6361;52.120;5.108;2023-07-31T03:13:45;36.90;;;8.82;;
12591;SDS011;6361;52.120;5.108;2023-07-31T03:16:11;33.20;;;8.35;;
12591;SDS011;6361;52.120;5.108;2023-07-31T03:18:36;36.03;;;8.98;;
12591;SDS011;6361;52.120;5.108;2023-07-31T03:21:01;34.03;;;8.73;;
12591;SDS011;6361;52.120;5.108;2023-07-31T03:23:27;34.15;;;9.00;;
12591;SDS011;6361;52.120;5.108;2023-07-31T03:25:58;37.45;;;9.40;;
12591;SDS011;6361;52.120;5.108;2023-07-31T03:28:25;36.90;;;8.70;;
12591;SDS011;6361;52.120;5.108;2023-07-31T03:30:51;27.70;;;7.25;;
12591;SDS011;6361;52.120;5.108;2023-07-31T03:33:17;30.92;;;8.45;;
12591;SDS011;6361;52.120;5.108;2023-07-31T03:35:42;35.53;;;9.13;;
12591;SDS011;6361;52.120;5.108;2023-07-31T03:38:07;33.45;;;8.15;;
12591;SDS011;6361;52.120;5.108;2023-07-31T03:40:35;28.42;;;8.32;;
12591;SDS011;6361;52.120;5.108;2023-07-31T03:43:00;31.00;;;8.43;;
12591;SDS011;6361;52.120;5.108;2023-07-31T03:45:26;34.53;;;8.50;;
12591;SDS011;6361;52.120;5.108;2023-07-31T03:47:51;27.33;;;8.10;;
12591;SDS011;6361;52.120;5.108;2023-07-31T03:50:17;38.10;;;8.55;;
12591;SDS011;6361;52.120;5.108;2023-07-31T03:52:42;33.22;;;9.07;;
12591;SDS011;6361;52.120;5.108;2023-07-31T03:55:07;30.33;;;7.97;;
12591;SDS011;6361;52.120;5.108;2023-07-31T03:57:33;32.55;;;8.27;;
12591;SDS011;6361;52.120;5.108;2023-07-31T03:59:59;30.15;;;8.60;;
12591;SDS011;6361;52.120;5.108;2023-07-31T04:02:24;26.17;;;7.45;;
12591;SDS011;6361;52.120;5.108;2023-07-31T04:04:50;31.75;;;8.48;;
12591;SDS011;6361;52.120;5.108;2023-07-31T04:07:15;38.65;;;8.50;;
12591;SDS011;6361;52.120;5.108;2023-07-31T04:09:40;32.70;;;9.30;;
12591;SDS011;6361;52.120;5.108;2023-07-31T04:12:06;32.55;;;8.77;;
12591;SDS011;6361;52.120;5.108;2023-07-31T04:14:31;37.42;;;8.63;;
12591;SDS011;6361;52.120;5.108;2023-07-31T04:16:57;32.42;;;9.63;;
12591;SDS011;6361;52.120;5.108;2023-07-31T04:19:22;29.33;;;8.70;;
12591;SDS011;6361;52.120;5.108;2023-07-31T04:21:47;23.90;;;8.55;;
12591;SDS011;6361;52.120;5.108;2023-07-31T04:24:13;27.48;;;8.95;;
12591;SDS011;6361;52.120;5.108;2023-07-31T04:26:38;28.75;;;8.75;;
12591;SDS011;6361;52.120;5.108;2023-07-31T04:29:03;28.13;;;9.18;;
12591;SDS011;6361;52.120;5.108;2023-07-31T04:31:29;29.77;;;9.15;;
12591;SDS011;6361;52.120;5.108;2023-07-31T04:33:54;29.77;;;10.00;;
12591;SDS011;6361;52.120;5.108;2023-07-31T04:36:20;30.73;;;9.82;;
12591;SDS011;6361;52.120;5.108;2023-07-31T04:38:45;30.08;;;10.18;;
12591;SDS011;6361;52.120;5.108;2023-07-31T04:41:10;28.48;;;8.88;;
12591;SDS011;6361;52.120;5.108;2023-07-31T04:43:36;24.80;;;8.82;;
12591;SDS011;6361;52.120;5.108;2023-07-31T04:46:04;25.40;;;8.68;;
12591;SDS011;6361;52.120;5.108;2023-07-31T04:48:30;32.00;;;9.25;;
12591;SDS011;6361;52.120;5.108;2023-07-31T04:50:55;29.65;;;9.02;;
12591;SDS011;6361;52.120;5.108;2023-07-31T04:53:20;32.47;;;9.65;;
12591;SDS011;6361;52.120;5.108;2023-07-31T04:55:46;26.45;;;10.20;;
12591;SDS011;6361;52.120;5.108;2023-07-31T04:58:11;24.20;;;9.60;;
12591;SDS011;6361;52.120;5.108;2023-07-31T05:00:36;20.98;;;8.88;;
12591;SDS011;6361;52.120;5.108;2023-07-31T05:03:02;20.33;;;8.77;;
12591;SDS011;6361;52.120;5.108;2023-07-31T05:05:27;24.13;;;9.07;;
12591;SDS011;6361;52.120;5.108;2023-07-31T05:07:53;25.77;;;8.88;;
12591;SDS011;6361;52.120;5.108;2023-07-31T05:10:18;22.25;;;8.52;;
12591;SDS011;6361;52.120;5.108;2023-07-31T05:12:43;23.27;;;8.30;;
12591;SDS011;6361;52.120;5.108;2023-07-31T05:15:09;25.95;;;8.02;;
12591;SDS011;6361;52.120;5.108;2023-07-31T05:17:34;20.23;;;7.43;;
12591;SDS011;6361;52.120;5.108;2023-07-31T05:20:00;16.33;;;7.40;;
12591;SDS011;6361;52.120;5.108;2023-07-31T05:22:25;14.95;;;7.28;;
12591;SDS011;6361;52.120;5.108;2023-07-31T05:24:51;14.02;;;6.22;;
12591;SDS011;6361;52.120;5.108;2023-07-31T05:27:16;16.08;;;6.75;;
12591;SDS011;6361;52.120;5.108;2023-07-31T05:29:43;16.05;;;6.93;;
12591;SDS011;6361;52.120;5.108;2023-07-31T05:32:09;18.05;;;6.80;;
12591;SDS011;6361;52.120;5.108;2023-07-31T05:34:34;17.88;;;6.85;;
12591;SDS011;6361;52.120;5.108;2023-07-31T05:37:00;14.68;;;6.30;;
12591;SDS011;6361;52.120;5.108;2023-07-31T05:39:25;16.52;;;6.13;;
12591;SDS011;6361;52.120;5.108;2023-07-31T05:41:50;17.00;;;6.07;;
12591;SDS011;6361;52.120;5.108;2023-07-31T05:44:16;14.35;;;5.70;;
12591;SDS011;6361;52.120;5.108;2023-07-31T05:46:43;13.52;;;5.72;;
12591;SDS011;6361;52.120;5.108;2023-07-31T05:49:09;18.05;;;6.45;;
12591;SDS011;6361;52.120;5.108;2023-07-31T05:51:34;14.57;;;6.57;;
12591;SDS011;6361;52.120;5.108;2023-07-31T05:54:00;15.52;;;6.85;;
12591;SDS011;6361;52.120;5.108;2023-07-31T05:56:25;14.70;;;6.40;;
12591;SDS011;6361;52.120;5.108;2023-07-31T05:58:52;14.85;;;5.85;;
12591;SDS011;6361;52.120;5.108;2023-07-31T06:01:17;16.83;;;6.18;;
12591;SDS011;6361;52.120;5.108;2023-07-31T06:03:43;16.40;;;7.00;;
12591;SDS011;6361;52.120;5.108;2023-07-31T06:06:08;17.63;;;5.82;;
12591;SDS011;6361;52.120;5.108;2023-07-31T06:08:34;12.98;;;5.40;;
12591;SDS011;6361;52.120;5.108;2023-07-31T06:10:59;12.68;;;5.55;;
12591;SDS011;6361;52.120;5.108;2023-07-31T06:13:25;11.10;;;5.47;;
12591;SDS011;6361;52.120;5.108;2023-07-31T06:15:50;12.45;;;4.80;;
12591;SDS011;6361;52.120;5.108;2023-07-31T06:18:15;11.15;;;4.78;;
12591;SDS011;6361;52.120;5.108;2023-07-31T06:20:41;10.45;;;4.88;;
12591;SDS011;6361;52.120;5.108;2023-07-31T06:23:07;9.95;;;5.00;;
12591;SDS011;6361;52.120;5.108;2023-07-31T06:25:32;8.73;;;4.80;;
12591;SDS011;6361;52.120;5.108;2023-07-31T06:27:58;11.73;;;4.82;;
12591;SDS011;6361;52.120;5.108;2023-07-31T06:30:23;10.57;;;4.47;;
12591;SDS011;6361;52.120;5.108;2023-07-31T06:32:48;11.38;;;4.68;;
12591;SDS011;6361;52.120;5.108;2023-07-31T06:35:14;9.52;;;4.43;;
12591;SDS011;6361;52.120;5.108;2023-07-31T06:37:39;9.95;;;4.47;;
12591;SDS011;6361;52.120;5.108;2023-07-31T06:40:05;13.15;;;5.13;;
12591;SDS011;6361;52.120;5.108;2023-07-31T06:42:33;9.55;;;4.85;;
12591;SDS011;6361;52.120;5.108;2023-07-31T06:45:00;10.05;;;5.10;;
12591;SDS011;6361;52.120;5.108;2023-07-31T06:47:25;11.23;;;5.13;;
12591;SDS011;6361;52.120;5.108;2023-07-31T06:49:51;10.48;;;4.97;;
12591;SDS011;6361;52.120;5.108;2023-07-31T06:52:16;9.10;;;5.00;;
12591;SDS011;6361;52.120;5.108;2023-07-31T06:54:42;11.10;;;5.18;;
12591;SDS011;6361;52.120;5.108;2023-07-31T06:57:07;9.77;;;5.43;;
12591;SDS011;6361;52.120;5.108;2023-07-31T06:59:33;9.27;;;5.05;;
12591;SDS011;6361;52.120;5.108;2023-07-31T07:01:58;15.05;;;5.15;;
12591;SDS011;6361;52.120;5.108;2023-07-31T07:04:24;9.18;;;4.78;;
12591;SDS011;6361;52.120;5.108;2023-07-31T07:06:49;13.85;;;4.63;;
12591;SDS011;6361;52.120;5.108;2023-07-31T07:09:14;5.53;;;4.13;;
12591;SDS011;6361;52.120;5.108;2023-07-31T07:11:40;9.65;;;4.82;;
12591;SDS011;6361;52.120;5.108;2023-07-31T07:14:05;7.85;;;3.90;;
12591;SDS011;6361;52.120;5.108;2023-07-31T07:16:31;8.13;;;4.25;;
12591;SDS011;6361;52.120;5.108;2023-07-31T07:18:56;7.55;;;3.55;;
12591;SDS011;6361;52.120;5.108;2023-07-31T07:21:21;8.60;;;3.50;;
12591;SDS011;6361;52.120;5.108;2023-07-31T07:23:47;5.32;;;3.00;;
12591;SDS011;6361;52.120;5.108;2023-07-31T07:26:13;5.45;;;3.35;;
12591;SDS011;6361;52.120;5.108;2023-07-31T07:28:38;6.47;;;3.60;;
12591;SDS011;6361;52.120;5.108;2023-07-31T07:31:03;6.95;;;3.70;;
12591;SDS011;6361;52.120;5.108;2023-07-31T07:33:29;8.48;;;4.00;;
12591;SDS011;6361;52.120;5.108;2023-07-31T07:35:59;8.30;;;3.70;;
12591;SDS011;6361;52.120;5.108;2023-07-31T07:38:25;7.68;;;3.53;;
12591;SDS011;6361;52.120;5.108;2023-07-31T07:40:51;5.22;;;3.17;;
12591;SDS011;6361;52.120;5.108;2023-07-31T07:43:18;5.47;;;3.50;;
12591;SDS011;6361;52.120;5.108;2023-07-31T07:45:43;6.10;;;2.92;;
12591;SDS011;6361;52.120;5.108;2023-07-31T07:48:09;4.53;;;3.00;;
12591;SDS011;6361;52.120;5.108;2023-07-31T07:50:34;3.97;;;2.75;;
12591;SDS011;6361;52.120;5.108;2023-07-31T07:53:00;2.97;;;2.30;;
12591;SDS011;6361;52.120;5.108;2023-07-31T07:55:25;4.57;;;2.40;;
12591;SDS011;6361;52.120;5.108;2023-07-31T07:57:51;3.17;;;2.22;;
12591;SDS011;6361;52.120;5.108;2023-07-31T08:00:16;4.15;;;2.40;;
12591;SDS011;6361;52.120;5.108;2023-07-31T08:02:42;5.20;;;2.50;;
12591;SDS011;6361;52.120;5.108;2023-07-31T08:05:08;3.30;;;2.40;;
12591;SDS011;6361;52.120;5.108;2023-07-31T08:07:33;3.55;;;2.40;;
12591;SDS011;6361;52.120;5.108;2023-07-31T08:09:59;3.25;;;2.70;;
12591;SDS011;6361;52.120;5.108;2023-07-31T08:12:24;3.83;;;2.40;;
12591;SDS011;6361;52.120;5.108;2023-07-31T08:14:50;5.43;;;2.72;;
12591;SDS011;6361;52.120;5.108;2023-07-31T08:17:15;4.47;;;2.60;;
12591;SDS011;6361;52.120;5.108;2023-07-31T08:19:40;4.13;;;2.45;;
12591;SDS011;6361;52.120;5.108;2023-07-31T08:22:06;3.20;;;2.50;;
12591;SDS011;6361;52.120;5.108;2023-07-31T08:24:31;3.50;;;2.22;;
12591;SDS011;6361;52.120;5.108;2023-07-31T08:26:56;3.83;;;2.28;;
12591;SDS011;6361;52.120;5.108;2023-07-31T08:29:22;3.50;;;2.05;;
12591;SDS011;6361;52.120;5.108;2023-07-31T08:31:47;3.30;;;2.30;;
12591;SDS011;6361;52.120;5.108;2023-07-31T08:34:13;3.95;;;2.13;;
12591;SDS011;6361;52.120;5.108;2023-07-31T08:36:38;2.35;;;2.03;;
12591;SDS011;6361;52.120;5.108;2023-07-31T08:39:03;3.85;;;2.25;;
12591;SDS011;6361;52.120;5.108;2023-07-31T08:41:29;3.00;;;2.10;;
12591;SDS011;6361;52.120;5.108;2023-07-31T08:43:54;2.78;;;2.00;;
12591;SDS011;6361;52.120;5.108;2023-07-31T08:46:20;3.15;;;1.95;;
12591;SDS011;6361;52.120;5.108;2023-07-31T08:48:46;3.40;;;2.20;;
12591;SDS011;6361;52.120;5.108;2023-07-31T08:51:13;3.28;;;2.03;;
12591;SDS011;6361;52.120;5.108;2023-07-31T08:53:39;3.75;;;2.38;;
12591;SDS011;6361;52.120;5.108;2023-07-31T08:56:05;2.92;;;2.40;;
12591;SDS011;6361;52.120;5.108;2023-07-31T08:58:31;3.00;;;1.88;;
12591;SDS011;6361;52.120;5.108;2023-07-31T09:00:57;2.17;;;1.88;;
12591;SDS011;6361;52.120;5.108;2023-07-31T09:03:24;3.22;;;2.00;;
12591;SDS011;6361;52.120;5.108;2023-07-31T09:05:51;4.20;;;2.00;;
12591;SDS011;6361;52.120;5.108;2023-07-31T09:08:21;3.22;;;2.15;;
12591;SDS011;6361;52.120;5.108;2023-07-31T09:10:47;2.90;;;2.40;;
12591;SDS011;6361;52.120;5.108;2023-07-31T09:13:13;2.80;;;2.40;;
12591;SDS011;6361;52.120;5.108;2023-07-31T09:15:39;3.97;;;2.25;;
12591;SDS011;6361;52.120;5.108;2023-07-31T09:18:06;2.80;;;2.20;;
12591;SDS011;6361;52.120;5.108;2023-07-31T09:20:32;4.38;;;2.40;;
12591;SDS011;6361;52.120;5.108;2023-07-31T09:23:08;3.53;;;2.38;;
12591;SDS011;6361;52.120;5.108;2023-07-31T09:25:41;2.83;;;2.60;;
12591;SDS011;6361;52.120;5.108;2023-07-31T09:28:11;3.75;;;2.65;;
12591;SDS011;6361;52.120;5.108;2023-07-31T09:30:47;3.08;;;2.78;;
12591;SDS011;6361;52.120;5.108;2023-07-31T09:33:16;4.00;;;2.67;;
12591;SDS011;6361;52.120;5.108;2023-07-31T09:35:42;3.38;;;2.05;;
12591;SDS011;6361;52.120;5.108;2023-07-31T09:38:09;3.33;;;2.40;;
12591;SDS011;6361;52.120;5.108;2023-07-31T09:40:36;2.55;;;2.35;;
12591;SDS011;6361;52.120;5.108;2023-07-31T09:43:09;2.45;;;2.22;;
12591;SDS011;6361;52.120;5.108;2023-07-31T09:45:37;3.38;;;2.50;;
12591;SDS011;6361;52.120;5.108;2023-07-31T09:48:03;3.10;;;2.30;;
12591;SDS011;6361;52.120;5.108;2023-07-31T09:50:36;2.85;;;2.00;;
12591;SDS011;6361;52.120;5.108;2023-07-31T09:53:03;3.55;;;2.45;;
12591;SDS011;6361;52.120;5.108;2023-07-31T09:55:29;2.50;;;2.30;;
12591;SDS011;6361;52.120;5.108;2023-07-31T09:57:54;2.80;;;2.50;;
12591;SDS011;6361;52.120;5.108;2023-07-31T10:00:22;2.50;;;2.28;;
12591;SDS011;6361;52.120;5.108;2023-07-31T10:02:50;3.45;;;2.50;;
12591;SDS011;6361;52.120;5.108;2023-07-31T10:05:16;3.58;;;2.40;;
12591;SDS011;6361;52.120;5.108;2023-07-31T10:07:51;3.75;;;2.25;;
12591;SDS011;6361;52.120;5.108;2023-07-31T10:10:20;2.72;;;2.40;;
12591;SDS011;6361;52.120;5.108;2023-07-31T10:12:46;2.88;;;2.40;;
12591;SDS011;6361;52.120;5.108;2023-07-31T10:15:13;3.80;;;2.88;;
12591;SDS011;6361;52.120;5.108;2023-07-31T10:17:39;5.72;;;2.85;;
12591;SDS011;6361;52.120;5.108;2023-07-31T10:20:05;4.88;;;3.33;;
12591;SDS011;6361;52.120;5.108;2023-07-31T10:22:31;3.92;;;3.30;;
12591;SDS011;6361;52.120;5.108;2023-07-31T10:24:58;6.38;;;3.65;;
12591;SDS011;6361;52.120;5.108;2023-07-31T10:27:24;4.78;;;3.97;;
12591;SDS011;6361;52.120;5.108;2023-07-31T10:29:49;5.88;;;4.25;;
12591;SDS011;6361;52.120;5.108;2023-07-31T10:32:15;6.97;;;3.67;;
12591;SDS011;6361;52.120;5.108;2023-07-31T10:34:42;6.47;;;3.97;;
12591;SDS011;6361;52.120;5.108;2023-07-31T10:40:00;6.85;;;3.72;;
12591;SDS011;6361;52.120;5.108;2023-07-31T10:42:44;4.13;;;3.72;;
12591;SDS011;6361;52.120;5.108;2023-07-31T10:45:13;5.90;;;3.78;;
12591;SDS011;6361;52.120;5.108;2023-07-31T10:50:11;7.97;;;3.67;;
12591;SDS011;6361;52.120;5.108;2023-07-31T10:52:37;4.72;;;3.50;;
12591;SDS011;6361;52.120;5.108;2023-07-31T10:55:16;4.70;;;4.05;;
12591;SDS011;6361;52.120;5.108;2023-07-31T10:58:05;7.28;;;4.93;;
12591;SDS011;6361;52.120;5.108;2023-07-31T11:00:32;6.00;;;4.28;;
12591;SDS011;6361;52.120;5.108;2023-07-31T11:02:58;5.18;;;4.28;;
12591;SDS011;6361;52.120;5.108;2023-07-31T11:05:45;6.80;;;4.72;;
12591;SDS011;6361;52.120;5.108;2023-07-31T11:10:40;7.90;;;5.15;;
12591;SDS011;6361;52.120;5.108;2023-07-31T11:13:05;6.70;;;5.07;;
12591;SDS011;6361;52.120;5.108;2023-07-31T11:15:31;6.80;;;4.22;;
12591;SDS011;6361;52.120;5.108;2023-07-31T11:17:56;6.82;;;4.20;;
12591;SDS011;6361;52.120;5.108;2023-07-31T11:20:25;8.45;;;4.05;;
12591;SDS011;6361;52.120;5.108;2023-07-31T11:22:50;8.60;;;4.32;;
12591;SDS011;6361;52.120;5.108;2023-07-31T11:25:16;5.18;;;3.17;;
12591;SDS011;6361;52.120;5.108;2023-07-31T11:27:41;7.50;;;4.05;;
12591;SDS011;6361;52.120;5.108;2023-07-31T11:30:08;5.60;;;3.20;;
12591;SDS011;6361;52.120;5.108;2023-07-31T11:32:37;4.28;;;3.17;;
12591;SDS011;6361;52.120;5.108;2023-07-31T11:35:02;6.30;;;3.00;;
12591;SDS011;6361;52.120;5.108;2023-07-31T11:37:43;6.35;;;3.30;;
12591;SDS011;6361;52.120;5.108;2023-07-31T11:40:09;6.93;;;3.80;;
12591;SDS011;6361;52.120;5.108;2023-07-31T11:42:35;9.02;;;4.00;;
12591;SDS011;6361;52.120;5.108;2023-07-31T11:45:04;9.60;;;4.38;;
12591;SDS011;6361;52.120;5.108;2023-07-31T11:47:34;6.82;;;4.65;;
12591;SDS011;6361;52.120;5.108;2023-07-31T11:50:01;9.65;;;5.70;;
12591;SDS011;6361;52.120;5.108;2023-07-31T11:52:30;11.85;;;5.40;;
12591;SDS011;6361;52.120;5.108;2023-07-31T11:54:59;9.90;;;6.38;;
12591;SDS011;6361;52.120;5.108;2023-07-31T11:57:25;11.30;;;7.28;;
12591;SDS011;6361;52.120;5.108;2023-07-31T11:59:50;8.35;;;6.80;;
12591;SDS011;6361;52.120;5.108;2023-07-31T12:02:17;12.93;;;7.65;;
12591;SDS011;6361;52.120;5.108;2023-07-31T12:04:43;12.75;;;7.75;;
12591;SDS011;6361;52.120;5.108;2023-07-31T12:07:08;17.20;;;9.70;;
12591;SDS011;6361;52.120;5.108;2023-07-31T12:09:33;12.32;;;8.65;;
12591;SDS011;6361;52.120;5.108;2023-07-31T12:11:59;11.75;;;7.75;;
12591;SDS011;6361;52.120;5.108;2023-07-31T12:14:25;11.13;;;7.18;;
12591;SDS011;6361;52.120;5.108;2023-07-31T12:17:01;11.18;;;7.82;;
12591;SDS011;6361;52.120;5.108;2023-07-31T12:19:29;9.05;;;6.70;;
12591;SDS011;6361;52.120;5.108;2023-07-31T12:21:55;9.00;;;6.80;;
12591;SDS011;6361;52.120;5.108;2023-07-31T12:24:21;8.43;;;6.90;;
12591;SDS011;6361;52.120;5.108;2023-07-31T12:26:47;10.60;;;6.90;;
12591;SDS011;6361;52.120;5.108;2023-07-31T12:29:13;11.10;;;6.55;;
12591;SDS011;6361;52.120;5.108;2023-07-31T12:31:40;10.10;;;6.40;;
12591;SDS011;6361;52.120;5.108;2023-07-31T12:34:16;10.57;;;6.38;;
12591;SDS011;6361;52.120;5.108;2023-07-31T12:36:46;7.30;;;5.88;;
12591;SDS011;6361;52.120;5.108;2023-07-31T12:39:13;9.27;;;6.72;;
12591;SDS011;6361;52.120;5.108;2023-07-31T12:41:39;10.48;;;6.75;;
12591;SDS011;6361;52.120;5.108;2023-07-31T12:44:05;8.50;;;6.90;;
12591;SDS011;6361;52.120;5.108;2023-07-31T12:46:30;8.10;;;6.57;;
12591;SDS011;6361;52.120;5.108;2023-07-31T12:48:56;8.05;;;6.35;;
12591;SDS011;6361;52.120;5.108;2023-07-31T12:51:21;9.13;;;6.15;;
12591;SDS011;6361;52.120;5.108;2023-07-31T12:53:46;6.72;;;5.57;;
12591;SDS011;6361;52.120;5.108;2023-07-31T12:56:12;7.32;;;6.18;;
12591;SDS011;6361;52.120;5.108;2023-07-31T12:58:37;7.70;;;6.20;;
12591;SDS011;6361;52.120;5.108;2023-07-31T13:01:03;10.05;;;7.18;;
12591;SDS011;6361;52.120;5.108;2023-07-31T13:03:28;7.25;;;6.55;;
12591;SDS011;6361;52.120;5.108;2023-07-31T13:05:54;7.97;;;6.85;;
12591;SDS011;6361;52.120;5.108;2023-07-31T13:08:19;7.10;;;6.13;;
12591;SDS011;6361;52.120;5.108;2023-07-31T13:10:45;9.13;;;5.72;;
12591;SDS011;6361;52.120;5.108;2023-07-31T13:13:10;7.95;;;6.00;;
12591;SDS011;6361;52.120;5.108;2023-07-31T13:15:36;9.20;;;5.80;;
12591;SDS011;6361;52.120;5.108;2023-07-31T13:18:01;7.80;;;5.50;;
12591;SDS011;6361;52.120;5.108;2023-07-31T13:20:27;8.05;;;5.85;;
12591;SDS011;6361;52.120;5.108;2023-07-31T13:22:52;7.00;;;6.03;;
12591;SDS011;6361;52.120;5.108;2023-07-31T13:25:17;8.95;;;5.63;;
12591;SDS011;6361;52.120;5.108;2023-07-31T13:27:43;5.63;;;5.07;;
12591;SDS011;6361;52.120;5.108;2023-07-31T13:30:08;5.57;;;5.00;;
12591;SDS011;6361;52.120;5.108;2023-07-31T13:32:34;6.05;;;5.30;;
12591;SDS011;6361;52.120;5.108;2023-07-31T13:35:03;5.82;;;4.78;;
12591;SDS011;6361;52.120;5.108;2023-07-31T13:37:32;5.25;;;4.10;;
12591;SDS011;6361;52.120;5.108;2023-07-31T13:39:57;4.00;;;3.60;;
12591;SDS011;6361;52.120;5.108;2023-07-31T13:42:22;3.25;;;2.95;;
12591;SDS011;6361;52.120;5.108;2023-07-31T13:44:48;4.22;;;2.60;;
12591;SDS011;6361;52.120;5.108;2023-07-31T13:47:13;3.60;;;2.67;;
12591;SDS011;6361;52.120;5.108;2023-07-31T13:49:38;2.88;;;2.10;;
12591;SDS011;6361;52.120;5.108;2023-07-31T13:52:04;3.35;;;2.22;;
12591;SDS011;6361;52.120;5.108;2023-07-31T13:54:29;3.28;;;2.85;;
12591;SDS011;6361;52.120;5.108;2023-07-31T13:56:55;2.60;;;2.30;;
12591;SDS011;6361;52.120;5.108;2023-07-31T13:59:21;2.83;;;2.20;;
12591;SDS011;6361;52.120;5.108;2023-07-31T14:01:46;2.08;;;1.75;;
12591;SDS011;6361;52.120;5.108;2023-07-31T14:04:12;1.80;;;1.50;;
12591;SDS011;6361;52.120;5.108;2023-07-31T14:06:38;1.98;;;1.63;;
12591;SDS011;6361;52.120;5.108;2023-07-31T14:09:04;2.00;;;1.80;;
12591;SDS011;6361;52.120;5.108;2023-07-31T14:11:32;2.50;;;1.98;;
12591;SDS011;6361;52.120;5.108;2023-07-31T14:13:58;3.42;;;2.17;;
12591;SDS011;6361;52.120;5.108;2023-07-31T14:16:23;3.55;;;2.70;;
12591;SDS011;6361;52.120;5.108;2023-07-31T14:18:48;3.20;;;2.90;;
12591;SDS011;6361;52.120;5.108;2023-07-31T14:21:14;4.47;;;2.58;;
12591;SDS011;6361;52.120;5.108;2023-07-31T14:23:44;2.92;;;2.00;;
12591;SDS011;6361;52.120;5.108;2023-07-31T14:26:09;1.95;;;1.70;;
12591;SDS011;6361;52.120;5.108;2023-07-31T14:28:35;3.30;;;1.85;;
12591;SDS011;6361;52.120;5.108;2023-07-31T14:31:00;3.10;;;2.17;;
12591;SDS011;6361;52.120;5.108;2023-07-31T14:33:26;2.95;;;2.40;;
12591;SDS011;6361;52.120;5.108;2023-07-31T14:35:51;5.28;;;2.58;;
12591;SDS011;6361;52.120;5.108;2023-07-31T14:38:16;4.38;;;2.60;;
12591;SDS011;6361;52.120;5.108;2023-07-31T14:40:42;4.18;;;2.65;;
12591;SDS011;6361;52.120;5.108;2023-07-31T14:43:07;3.58;;;2.53;;
12591;SDS011;6361;52.120;5.108;2023-07-31T14:45:33;2.38;;;1.92;;
12591;SDS011;6361;52.120;5.108;2023-07-31T14:47:58;6.13;;;2.38;;
12591;SDS011;6361;52.120;5.108;2023-07-31T14:50:24;4.15;;;1.48;;
12591;SDS011;6361;52.120;5.108;2023-07-31T14:52:50;2.05;;;1.45;;
12591;SDS011;6361;52.120;5.108;2023-07-31T14:55:15;3.15;;;1.40;;
12591;SDS011;6361;52.120;5.108;2023-07-31T14:57:41;2.83;;;1.63;;
12591;SDS011;6361;52.120;5.108;2023-07-31T15:00:06;2.05;;;1.85;;
12591;SDS011;6361;52.120;5.108;2023-07-31T15:02:36;2.97;;;2.10;;
12591;SDS011;6361;52.120;5.108;2023-07-31T15:05:02;2.42;;;2.00;;